XBPDU MMUN-MMUN
Flight info
| Callsign | XBPDU |
|---|---|
| Flight time | 0h 31m |
| Altitude | 1500 |
| Route | CUN LCL |
| Aircraft | C172/L-SFG/C |
Departure
| Time | 2026-04-27 02:42 |
|---|---|
| Airport | Cancún International Airport (MMUN) |
Arrival
| Time | 2026-04-27 03:13 |
|---|---|
| Airport | Cancún International Airport (MMUN) |
| Time | Latitude | Longitude | Altitude | Speed | Heading |
|---|---|---|---|---|---|
| 2026-04-27 02:30 | 21.03419 | -86.86465 | 24 ft | 0 kts | 123° |
| 2026-04-27 02:33 | 21.03419 | -86.86466 | 24 ft | 0 kts | 123° |
| 2026-04-27 02:34 | 21.03416 | -86.86461 | 24 ft | 3 kts | 125° |
| 2026-04-27 02:34 | 21.03438 | -86.86432 | 24 ft | 10 kts | 32° |
| 2026-04-27 02:35 | 21.03439 | -86.86396 | 24 ft | 7 kts | 128° |
| 2026-04-27 02:35 | 21.03393 | -86.86384 | 24 ft | 11 kts | 213° |
| 2026-04-27 02:35 | 21.03314 | -86.86441 | 24 ft | 17 kts | 213° |
| 2026-04-27 02:35 | 21.03210 | -86.86515 | 24 ft | 18 kts | 214° |
| 2026-04-27 02:36 | 21.03153 | -86.86583 | 25 ft | 11 kts | 298° |
| 2026-04-27 02:36 | 21.03201 | -86.86658 | 25 ft | 13 kts | 305° |
| 2026-04-27 02:36 | 21.03255 | -86.86744 | 25 ft | 15 kts | 303° |
| 2026-04-27 02:36 | 21.03314 | -86.86839 | 25 ft | 16 kts | 304° |
| 2026-04-27 02:37 | 21.03378 | -86.86942 | 25 ft | 17 kts | 303° |
| 2026-04-27 02:37 | 21.03446 | -86.87050 | 25 ft | 18 kts | 304° |
| 2026-04-27 02:37 | 21.03516 | -86.87164 | 25 ft | 19 kts | 303° |
| 2026-04-27 02:37 | 21.03575 | -86.87286 | 26 ft | 19 kts | 282° |
| 2026-04-27 02:38 | 21.03584 | -86.87324 | 26 ft | 0 kts | 284° |
| 2026-04-27 02:38 | 21.03587 | -86.87339 | 27 ft | 8 kts | 284° |
| 2026-04-27 02:38 | 21.03598 | -86.87424 | 29 ft | 7 kts | 273° |
| 2026-04-27 02:38 | 21.03598 | -86.87427 | 29 ft | 0 kts | 274° |
| 2026-04-27 02:40 | 21.03598 | -86.87431 | 29 ft | 3 kts | 273° |
| 2026-04-27 02:40 | 21.03601 | -86.87500 | 31 ft | 14 kts | 263° |
| 2026-04-27 02:41 | 21.03545 | -86.87521 | 31 ft | 1 kts | 124° |
| 2026-04-27 02:41 | 21.03531 | -86.87499 | 31 ft | 20 kts | 126° |
| 2026-04-27 02:41 | 21.03351 | -86.87212 | 30 ft | 71 kts | 124° |
| 2026-04-27 02:41 | 21.03027 | -86.86684 | 118 ft | 92 kts | 126° |
| 2026-04-27 02:42 | 21.02668 | -86.86119 | 321 ft | 94 kts | 128° |
| 2026-04-27 02:42 | 21.02289 | -86.85492 | 433 ft | 107 kts | 127° |
| 2026-04-27 02:42 | 21.01848 | -86.84867 | 641 ft | 105 kts | 150° |
| 2026-04-27 02:42 | 21.01182 | -86.84751 | 873 ft | 95 kts | 206° |
| 2026-04-27 02:43 | 21.00599 | -86.85047 | 1078 ft | 96 kts | 212° |
| 2026-04-27 02:43 | 21.00137 | -86.85530 | 1218 ft | 94 kts | 256° |
| 2026-04-27 02:43 | 21.00276 | -86.86192 | 1380 ft | 98 kts | 302° |
| 2026-04-27 02:43 | 21.00687 | -86.86798 | 1487 ft | 102 kts | 303° |
| 2026-04-27 02:44 | 21.01093 | -86.87408 | 1680 ft | 100 kts | 303° |
| 2026-04-27 02:44 | 21.01510 | -86.88012 | 1672 ft | 102 kts | 303° |
| 2026-04-27 02:44 | 21.01926 | -86.88628 | 1665 ft | 101 kts | 302° |
| 2026-04-27 02:44 | 21.02325 | -86.89244 | 1617 ft | 101 kts | 302° |
| 2026-04-27 02:45 | 21.02727 | -86.89857 | 1525 ft | 100 kts | 302° |
| 2026-04-27 02:45 | 21.03132 | -86.90462 | 1363 ft | 100 kts | 303° |
| 2026-04-27 02:45 | 21.03537 | -86.91057 | 1154 ft | 101 kts | 303° |
| 2026-04-27 02:45 | 21.03935 | -86.91642 | 971 ft | 93 kts | 303° |
| 2026-04-27 02:46 | 21.04494 | -86.91914 | 773 ft | 101 kts | 6° |
| 2026-04-27 02:46 | 21.05047 | -86.91498 | 663 ft | 99 kts | 42° |
| 2026-04-27 02:46 | 21.05351 | -86.90827 | 621 ft | 103 kts | 79° |
| 2026-04-27 02:46 | 21.05421 | -86.90061 | 518 ft | 98 kts | 88° |
| 2026-04-27 02:47 | 21.05350 | -86.89381 | 406 ft | 87 kts | 139° |
| 2026-04-27 02:47 | 21.04821 | -86.89050 | 176 ft | 89 kts | 158° |
| 2026-04-27 02:47 | 21.04298 | -86.88702 | 44 ft | 87 kts | 128° |
| 2026-04-27 02:47 | 21.03980 | -86.88221 | 28 ft | 70 kts | 122° |
| 2026-04-27 02:48 | 21.03699 | -86.87766 | 30 ft | 89 kts | 123° |
| 2026-04-27 02:48 | 21.03326 | -86.87158 | 125 ft | 103 kts | 128° |
| 2026-04-27 02:48 | 21.02943 | -86.86530 | 351 ft | 102 kts | 126° |
| 2026-04-27 02:48 | 21.02551 | -86.85872 | 480 ft | 110 kts | 126° |
| 2026-04-27 02:49 | 21.02087 | -86.85217 | 610 ft | 113 kts | 147° |
| 2026-04-27 02:49 | 21.01371 | -86.85003 | 800 ft | 105 kts | 193° |
| 2026-04-27 02:49 | 21.00745 | -86.85284 | 927 ft | 97 kts | 213° |
| 2026-04-27 02:49 | 21.00144 | -86.85607 | 1016 ft | 96 kts | 213° |
| 2026-04-27 02:50 | 20.99768 | -86.86148 | 1077 ft | 94 kts | 264° |
| 2026-04-27 02:50 | 21.00022 | -86.86797 | 1109 ft | 100 kts | 312° |
| 2026-04-27 02:50 | 21.00519 | -86.87297 | 1171 ft | 101 kts | 312° |
| 2026-04-27 02:50 | 21.01001 | -86.87810 | 1272 ft | 98 kts | 311° |
| 2026-04-27 02:51 | 21.01503 | -86.88330 | 1316 ft | 100 kts | 313° |
| 2026-04-27 02:51 | 21.02019 | -86.88845 | 1335 ft | 104 kts | 314° |
| 2026-04-27 02:51 | 21.02538 | -86.89374 | 1396 ft | 102 kts | 311° |
| 2026-04-27 02:51 | 21.03058 | -86.89872 | 1409 ft | 96 kts | 335° |
| 2026-04-27 02:52 | 21.03709 | -86.89630 | 906 ft | 124 kts | 42° |
| 2026-04-27 02:52 | 21.04174 | -86.88776 | 143 ft | 142 kts | 88° |
| 2026-04-27 02:52 | 21.03863 | -86.88033 | 39 ft | 93 kts | 121° |
| 2026-04-27 02:52 | 21.03572 | -86.87565 | 31 ft | 62 kts | 124° |
| 2026-04-27 02:53 | 21.03312 | -86.87149 | 29 ft | 84 kts | 123° |
| 2026-04-27 02:53 | 21.03022 | -86.86668 | 46 ft | 105 kts | 125° |
| 2026-04-27 02:53 | 21.02828 | -86.86346 | 94 ft | 108 kts | 127° |
| 2026-04-27 02:53 | 21.02420 | -86.85710 | 309 ft | 105 kts | 127° |
| 2026-04-27 02:54 | 21.02009 | -86.85050 | 423 ft | 111 kts | 128° |
| 2026-04-27 02:54 | 21.01493 | -86.84447 | 624 ft | 106 kts | 160° |
| 2026-04-27 02:54 | 21.00800 | -86.84415 | 809 ft | 100 kts | 209° |
| 2026-04-27 02:54 | 21.00178 | -86.84746 | 1002 ft | 100 kts | 212° |
| 2026-04-27 02:55 | 20.99716 | -86.85255 | 1144 ft | 98 kts | 254° |
| 2026-04-27 02:55 | 20.99816 | -86.85963 | 1283 ft | 102 kts | 301° |
| 2026-04-27 02:55 | 21.00231 | -86.86557 | 1441 ft | 101 kts | 303° |
| 2026-04-27 02:55 | 21.00655 | -86.87167 | 1526 ft | 102 kts | 302° |
| 2026-04-27 02:56 | 21.01091 | -86.87799 | 1543 ft | 105 kts | 304° |
| 2026-04-27 02:56 | 21.01547 | -86.88380 | 1509 ft | 102 kts | 308° |
| 2026-04-27 02:56 | 21.02018 | -86.88915 | 1470 ft | 101 kts | 310° |
| 2026-04-27 02:56 | 21.02522 | -86.89445 | 1375 ft | 101 kts | 313° |
| 2026-04-27 02:57 | 21.03031 | -86.89955 | 1304 ft | 100 kts | 312° |
| 2026-04-27 02:57 | 21.03498 | -86.90503 | 1218 ft | 99 kts | 306° |
| 2026-04-27 02:57 | 21.03929 | -86.91043 | 1058 ft | 92 kts | 308° |
| 2026-04-27 02:57 | 21.04533 | -86.91115 | 807 ft | 102 kts | 15° |
| 2026-04-27 02:58 | 21.05104 | -86.90603 | 668 ft | 114 kts | 78° |
| 2026-04-27 02:58 | 21.04952 | -86.89784 | 279 ft | 115 kts | 120° |
| 2026-04-27 02:58 | 21.04530 | -86.89098 | 46 ft | 105 kts | 126° |
| 2026-04-27 02:58 | 21.04164 | -86.88519 | 31 ft | 83 kts | 127° |
| 2026-04-27 02:59 | 21.03874 | -86.88063 | 28 ft | 66 kts | 118° |
| 2026-04-27 02:59 | 21.03629 | -86.87655 | 30 ft | 81 kts | 123° |
| 2026-04-27 02:59 | 21.03255 | -86.87049 | 38 ft | 111 kts | 126° |
| 2026-04-27 02:59 | 21.02822 | -86.86349 | 305 ft | 101 kts | 126° |
| 2026-04-27 03:00 | 21.02439 | -86.85714 | 541 ft | 102 kts | 127° |
| 2026-04-27 03:00 | 21.01962 | -86.85139 | 696 ft | 104 kts | 160° |
| 2026-04-27 03:00 | 21.01293 | -86.85139 | 886 ft | 97 kts | 211° |
| 2026-04-27 03:00 | 21.00695 | -86.85457 | 1073 ft | 97 kts | 214° |
| 2026-04-27 03:01 | 21.00240 | -86.85927 | 1282 ft | 90 kts | 256° |
| 2026-04-27 03:01 | 21.00379 | -86.86549 | 1485 ft | 93 kts | 306° |
| 2026-04-27 03:01 | 21.00766 | -86.87084 | 1673 ft | 93 kts | 302° |
| 2026-04-27 03:01 | 21.01141 | -86.87639 | 1906 ft | 88 kts | 302° |
| 2026-04-27 03:02 | 21.01493 | -86.88137 | 1882 ft | 83 kts | 305° |
| 2026-04-27 03:02 | 21.01842 | -86.88624 | 1809 ft | 84 kts | 303° |
| 2026-04-27 03:02 | 21.02199 | -86.89118 | 1730 ft | 84 kts | 304° |
| 2026-04-27 03:02 | 21.02561 | -86.89606 | 1665 ft | 84 kts | 304° |
| 2026-04-27 03:03 | 21.02917 | -86.90107 | 1592 ft | 84 kts | 303° |
| 2026-04-27 03:03 | 21.03618 | -86.91103 | 1445 ft | 84 kts | 305° |
| 2026-04-27 03:03 | 21.04020 | -86.91550 | 1301 ft | 88 kts | 329° |
| 2026-04-27 03:04 | 21.04644 | -86.91462 | 1145 ft | 101 kts | 31° |
| 2026-04-27 03:04 | 21.05162 | -86.90961 | 982 ft | 105 kts | 53° |
| 2026-04-27 03:04 | 21.05231 | -86.90203 | 688 ft | 108 kts | 121° |
| 2026-04-27 03:04 | 21.04797 | -86.89498 | 243 ft | 117 kts | 128° |
| 2026-04-27 03:05 | 21.04343 | -86.88799 | 39 ft | 102 kts | 127° |
| 2026-04-27 03:05 | 21.04025 | -86.88287 | 28 ft | 68 kts | 127° |
| 2026-04-27 03:05 | 21.03772 | -86.87887 | 29 ft | 77 kts | 123° |
| 2026-04-27 03:05 | 21.03419 | -86.87310 | 61 ft | 103 kts | 125° |
| 2026-04-27 03:06 | 21.03006 | -86.86644 | 177 ft | 107 kts | 129° |
| 2026-04-27 03:06 | 21.02586 | -86.86001 | 365 ft | 109 kts | 127° |
| 2026-04-27 03:06 | 21.02175 | -86.85353 | 578 ft | 107 kts | 135° |
| 2026-04-27 03:06 | 21.01522 | -86.85032 | 749 ft | 102 kts | 188° |
| 2026-04-27 03:07 | 21.00879 | -86.85287 | 935 ft | 98 kts | 212° |
| 2026-04-27 03:07 | 21.00286 | -86.85629 | 1121 ft | 97 kts | 225° |
| 2026-04-27 03:07 | 21.00015 | -86.86261 | 1285 ft | 95 kts | 272° |
| 2026-04-27 03:07 | 21.00306 | -86.86894 | 1455 ft | 96 kts | 303° |
| 2026-04-27 03:08 | 21.00696 | -86.87455 | 1577 ft | 95 kts | 304° |
| 2026-04-27 03:08 | 21.01087 | -86.88017 | 1669 ft | 95 kts | 302° |
| 2026-04-27 03:08 | 21.01471 | -86.88593 | 1744 ft | 97 kts | 303° |
| 2026-04-27 03:08 | 21.01892 | -86.89187 | 1701 ft | 101 kts | 307° |
| 2026-04-27 03:09 | 21.02355 | -86.89700 | 1452 ft | 97 kts | 317° |
| 2026-04-27 03:09 | 21.03033 | -86.89799 | 1005 ft | 115 kts | 27° |
| 2026-04-27 03:09 | 21.03670 | -86.89200 | 470 ft | 129 kts | 53° |
| 2026-04-27 03:09 | 21.03963 | -86.88317 | 76 ft | 123 kts | 103° |
| 2026-04-27 03:10 | 21.03665 | -86.87712 | 33 ft | 80 kts | 125° |
| 2026-04-27 03:10 | 21.03387 | -86.87277 | 30 ft | 67 kts | 122° |
| 2026-04-27 03:10 | 21.03062 | -86.86747 | 64 ft | 99 kts | 125° |
| 2026-04-27 03:10 | 21.02674 | -86.86134 | 300 ft | 98 kts | 128° |
| 2026-04-27 03:11 | 21.02246 | -86.85565 | 485 ft | 100 kts | 157° |
| 2026-04-27 03:11 | 21.01798 | -86.85518 | 547 ft | 101 kts | 205° |
| 2026-04-27 03:11 | 21.01217 | -86.85917 | 690 ft | 99 kts | 239° |
| 2026-04-27 03:11 | 21.01250 | -86.86626 | 758 ft | 106 kts | 296° |
| 2026-04-27 03:12 | 21.01632 | -86.87302 | 600 ft | 104 kts | 301° |
| 2026-04-27 03:12 | 21.02033 | -86.87899 | 463 ft | 97 kts | 304° |
| 2026-04-27 03:12 | 21.02429 | -86.88434 | 404 ft | 86 kts | 323° |
| 2026-04-27 03:12 | 21.03017 | -86.88320 | 303 ft | 95 kts | 25° |
| 2026-04-27 03:13 | 21.03480 | -86.87827 | 182 ft | 96 kts | 63° |
| 2026-04-27 03:13 | 21.03392 | -86.87255 | 38 ft | 71 kts | 133° |
| 2026-04-27 03:13 | 21.03153 | -86.86897 | 30 ft | 42 kts | 123° |
| 2026-04-27 03:13 | 21.03037 | -86.86710 | 31 ft | 20 kts | 123° |
| 2026-04-27 03:14 | 21.03052 | -86.86628 | 30 ft | 12 kts | 33° |
| 2026-04-27 03:14 | 21.03126 | -86.86576 | 27 ft | 14 kts | 34° |
| 2026-04-27 03:14 | 21.03204 | -86.86519 | 24 ft | 13 kts | 34° |
| 2026-04-27 03:14 | 21.03279 | -86.86465 | 24 ft | 13 kts | 31° |
| 2026-04-27 03:15 | 21.03337 | -86.86483 | 24 ft | 10 kts | 300° |
| 2026-04-27 03:15 | 21.03360 | -86.86481 | 24 ft | 3 kts | 97° |
| 2026-04-27 03:15 | 21.03345 | -86.86460 | 24 ft | 0 kts | 124° |
| 2026-04-27 03:18 | 21.03345 | -86.86461 | 24 ft | 0 kts | 124° |
| 2026-04-27 03:23 | 21.03346 | -86.86461 | 24 ft | 0 kts | 124° |
| 2026-04-27 03:28 | 21.03346 | -86.86462 | 24 ft | 0 kts | 124° |
| 2026-04-27 03:39 | 21.03346 | -86.86463 | 24 ft | 0 kts | 124° |
| 2026-04-27 03:40 | 21.03347 | -86.86463 | 24 ft | 0 kts | 124° |
| 2026-04-27 03:49 | 21.03347 | -86.86464 | 24 ft | 0 kts | 124° |
| 2026-04-27 03:56 | 21.03348 | -86.86464 | 24 ft | 0 kts | 124° |
| 2026-04-27 04:00 | 21.03348 | -86.86465 | 24 ft | 0 kts | 124° |
| 2026-04-27 04:10 | 21.03348 | -86.86466 | 24 ft | 0 kts | 124° |
| 2026-04-27 04:13 | 21.03349 | -86.86466 | 24 ft | 0 kts | 124° |
| 2026-04-27 04:21 | 21.03349 | -86.86467 | 24 ft | 0 kts | 124° |